Strona główna
METAR-TAF:

METAR-TAF

Lotnisko :

Makkovik, Nowa Fundlandia i Labrador, Kanada

Szerokość geograficzna: 55-05N, Długość geograficzna: 059-11W, wysokość: 71 m

Aktualna obserwacja pogody

Raport powstał 18 minut temu, godzina 19:00 UTC
Wiatr 22 kt od północ w porywach dochodzący do 35 kt
Temperatura -3°C
Wilgotność 93%
Ciśnienie 1008 hPa
Widzialność: 2.0 km
słaby śnieg, zawieja śnieżna

METAR: CYFT 091900Z 35022G35KT 1 1/4SM -SN BLSN VV004 M03/M04 A2977 RMK BLSN8 SLP089

czas: 15:18 (19:18 UTC)


TAF: brakujący

Obserwacja i prognoza pogody dla ponad 4000 lotnisk (raport METAR i TAF).

Dostępne stacje oznaczono żółtymi i czerwonymi punktami na mapie.

Najedź kursorem aby zobaczyć nazwę stacji.

Kliknij aby zobaczyć obserwacje i prognozy pogody.

Aby zmienić mapę: kliknij na zielony przycisk z czarnym krzyżykiem, aby powiększyć; na zielony przycisk z myślnikiem, aby pomniejszyć; na zielone strzałki, aby przejść do map sąsiednich.


METAR-TAF: